Latest Weather Observations for Jacup

IDW60801

Issued at 3:34 am WST Thursday 17 August 2017 (issued every 30 minutes, with the page automatically refreshed every 10 minutes)

About weather observations | Map of weather stations | Latest weather observations for WA | Other Formats
Station Details ID: 010905 Name: JACUP Lat: -33.89 Lon: 119.11 Height: 305.0 m
Data from the previous 72 hours. | See also: Recent months at Jacup
Date/Time
WST
Temp
°C
App
Temp
°C
Dew
Point
°C
Rel
Hum
%
Delta-T
°C
Wind Press
QNH
hPa
Press
MSL
hPa
Rain since
9am
mm
Dir  Spd
km/h
Gust
km/h
Spd
kts
Gust
kts
17/03:30am 2.8 -1.0 1.5 91 0.5 WNW 11 17 6 9 1016.9 1017.0 0.0
17/03:00am 3.1 -1.1 1.6 90 0.6 WNW 13 17 7 9 1016.8 1016.9 0.0
17/02:30am 3.5 -1.4 2.0 90 0.6 W 17 26 9 14 1016.8 1016.9 0.0
17/02:00am 3.5 -1.4 1.9 89 0.6 W 17 22 9 12 1016.9 1017.0 0.0
17/01:30am 3.8 -1.1 2.0 88 0.7 W 17 26 9 14 1016.8 1016.9 0.0
17/01:00am 3.8 -1.1 2.0 88 0.7 WNW 17 22 9 12 1016.9 1017.0 0.0
17/12:30am 3.4 -1.2 1.4 87 0.8 WNW 15 20 8 11 1016.9 1017.0 0.0
17/12:00am 3.5 -0.8 1.2 85 0.9 WNW 13 19 7 10 1017.0 1017.1 0.0
 
Date/Time
WST
Temp
°C
App
Temp
°C
Dew
Point
°C
Rel
Hum
%
Delta-T
°C
Wind Press
QNH
hPa
Press
MSL
hPa
Rain since
9am
mm
Dir  Spd
km/h
Gust
km/h
Spd
kts
Gust
kts
16/11:30pm 3.9 -0.3 1.4 84 1.0 W 13 19 7 10 1017.0 1017.1 0.0
16/11:00pm 4.2 -0.4 1.6 83 1.0 WNW 15 22 8 12 1017.1 1017.2 0.0
16/10:30pm 4.4 0.2 1.6 82 1.1 WNW 13 20 7 11 1017.2 1017.3 0.0
16/10:00pm 4.6 0.4 1.6 81 1.2 WNW 13 19 7 10 1017.2 1017.3 0.0
16/09:30pm 5.3 0.3 1.6 77 1.5 W 17 24 9 13 1017.2 1017.3 0.0
16/09:00pm 5.8 0.4 1.5 74 1.7 W 19 28 10 15 1017.0 1017.1 0.0
16/08:30pm 6.2 0.6 1.3 71 2.0 W 20 32 11 17 1016.8 1016.9 0.0
16/08:00pm 6.4 1.0 1.5 71 2.0 W 19 30 10 16 1016.6 1016.7 0.0
16/07:30pm 6.4 0.9 1.9 73 1.9 W 20 32 11 17 1016.1 1016.2 0.0
16/07:00pm 7.0 1.2 2.3 72 2.0 W 22 33 12 18 1015.8 1015.9 0.0
16/06:30pm 7.5 2.3 2.4 70 2.2 W 19 30 10 16 1015.5 1015.6 0.0
16/06:00pm 7.6 1.8 2.1 68 2.3 W 22 33 12 18 1015.0 1015.0 0.0
16/05:30pm 7.7 2.2 1.8 66 2.5 W 20 32 11 17 1014.7 1014.7 0.0
16/05:00pm 8.9 1.1 1.6 60 3.1 W 32 50 17 27 1014.3 1014.3 0.0
16/04:30pm 9.7 1.0 2.3 60 3.2 WSW 37 57 20 31 1013.7 1013.8 0.0
16/04:00pm 11.2 3.4 1.7 52 4.1 W 32 52 17 28 1013.1 1013.2 0.0
16/03:30pm 10.5 2.8 2.4 57 3.5 W 32 56 17 30 1013.3 1013.4 0.0
16/03:09pm 12.1 5.2 2.3 51 4.3 WSW 28 52 15 28 1013.0 1013.1 0.0
16/03:00pm 12.4 6.0 3.1 53 4.2 WSW 26 39 14 21 1013.0 1013.1 0.0
16/02:34pm 12.0 4.4 3.0 54 4.0 WSW 32 50 17 27 1012.7 1012.8 0.0
16/02:30pm 11.8 4.6 3.1 55 3.9 WSW 30 44 16 24 1012.8 1012.9 0.0
16/02:00pm 11.5 4.4 1.5 50 4.3 WSW 28 46 15 25 1012.4 1012.4 0.0
16/01:30pm 12.3 3.6 1.9 49 4.5 W 37 59 20 32 1012.4 1012.4 0.0
16/01:00pm 12.5 3.7 1.5 47 4.8 W 37 61 20 33 1012.3 1012.3 0.0
16/12:30pm 11.5 3.2 2.0 52 4.1 W 35 56 19 30 1012.6 1012.7 0.0
16/12:00pm 13.0 5.1 2.3 48 4.8 WSW 33 54 18 29 1012.6 1012.7 0.0
16/11:39am 12.5 4.1 3.5 54 4.1 W 37 56 20 30 1012.6 1012.7 0.0
16/11:30am 11.9 2.8 2.1 51 4.3 W 39 56 21 30 1012.6 1012.7 0.0
16/11:00am 11.1 2.4 2.2 54 3.9 W 37 59 20 32 1012.9 1013.0 0.0
16/10:30am 10.6 2.1 3.2 60 3.3 W 37 59 20 32 1012.8 1012.9 0.0
16/10:00am 10.6 2.5 3.4 61 3.2 W 35 56 19 30 1012.6 1012.7 0.0
16/09:30am 10.2 1.8 3.5 63 3.0 W 37 61 20 33 1012.5 1012.6 0.0
16/09:00am 9.8 2.9 4.4 69 2.4 W 30 48 16 26 1012.5 1012.6 0.2
16/08:41am 9.3 2.4 4.5 72 2.2 W 30 48 16 26 1012.5 1012.6 0.2
16/08:30am 8.8 2.3 4.6 75 1.9 W 28 44 15 24 1012.3 1012.3 0.2
16/08:00am 7.8 2.4 4.7 81 1.4 WNW 22 39 12 21 1012.3 1012.3 0.2
16/07:30am 6.9 1.9 4.7 86 1.0 WNW 20 32 11 17 1012.2 1012.2 0.2
16/07:00am 6.2 1.4 4.7 90 0.7 WNW 19 26 10 14 1012.0 1012.0 0.2
16/06:30am 6.1 1.7 4.7 91 0.6 WNW 17 26 9 14 1011.8 1011.8 0.2
16/06:00am 6.3 1.9 4.9 91 0.6 WNW 17 22 9 12 1011.7 1011.7 0.2
16/05:30am 6.7 2.0 5.3 91 0.6 WNW 19 32 10 17 1011.4 1011.4 0.2
16/05:00am 7.1 2.3 5.7 91 0.6 W 20 32 11 17 1011.5 1011.5 0.0
16/04:30am 7.1 2.6 5.9 92 0.5 WNW 19 32 10 17 1011.3 1011.3 0.0
16/04:00am 7.0 2.8 5.6 91 0.6 WNW 17 26 9 14 1011.0 1011.0 0.0
16/03:30am 7.3 3.1 5.9 91 0.6 WNW 17 28 9 15 1011.1 1011.1 0.0
16/03:00am 7.5 2.9 5.8 89 0.8 WNW 19 28 10 15 1011.2 1011.2 0.0
16/02:30am 7.5 2.8 6.0 90 0.7 WNW 20 33 11 18 1011.3 1011.3 0.0
16/02:00am 6.9 2.1 5.5 91 0.6 WNW 20 32 11 17 1011.4 1011.4 0.0
16/01:30am 6.8 1.9 5.3 90 0.7 WNW 20 35 11 19 1011.8 1011.8 0.0
16/01:00am 6.7 1.4 5.2 90 0.7 WNW 22 32 12 17 1011.8 1011.8 0.0
16/12:30am 7.0 1.8 5.3 89 0.8 WNW 22 35 12 19 1011.7 1011.7 0.0
16/12:00am 7.1 1.9 5.4 89 0.8 WNW 22 35 12 19 1011.5 1011.5 0.0
 
Date/Time
WST
Temp
°C
App
Temp
°C
Dew
Point
°C
Rel
Hum
%
Delta-T
°C
Wind Press
QNH
hPa
Press
MSL
hPa
Rain since
9am
mm
Dir  Spd
km/h
Gust
km/h
Spd
kts
Gust
kts
15/11:30pm 7.3 2.4 5.3 87 0.9 WNW 20 32 11 17 1011.6 1011.6 0.0
15/11:00pm 7.6 1.7 5.6 87 0.9 WNW 26 39 14 21 1011.7 1011.7 0.0
15/10:30pm 7.5 2.3 5.3 86 1.0 WNW 22 41 12 22 1012.0 1012.0 0.0
15/10:00pm 7.5 2.8 5.0 84 1.1 WNW 19 28 10 15 1012.6 1012.7 0.0
15/09:30pm 7.5 2.7 4.8 83 1.2 WNW 19 28 10 15 1012.9 1013.0 0.0
15/09:00pm 7.3 3.2 4.3 81 1.3 WNW 15 22 8 12 1013.2 1013.3 0.0
15/08:30pm 7.4 3.0 4.5 82 1.3 W 17 24 9 13 1013.3 1013.4 0.0
15/08:00pm 7.2 3.5 4.7 84 1.1 W 13 19 7 10 1013.2 1013.3 0.0
15/07:30pm 7.5 4.6 4.6 82 1.3 WNW 9 13 5 7 1013.0 1013.1 0.0
15/07:00pm 8.4 4.5 5.2 80 1.5 W 15 20 8 11 1012.8 1012.9 0.0
15/06:30pm 9.2 4.4 5.4 77 1.7 W 20 32 11 17 1012.7 1012.8 0.0
15/06:00pm 9.3 4.5 5.7 78 1.7 W 20 30 11 16 1012.5 1012.6 0.0
15/05:30pm 10.0 4.0 5.2 72 2.2 W 26 46 14 25 1012.3 1012.3 0.0
15/05:24pm 10.4 4.0 5.4 71 2.3 W 28 46 15 25 1012.2 1012.2 0.0
15/05:00pm 11.1 5.5 5.4 68 2.7 W 24 39 13 21 1012.0 1012.0 0.0
15/04:30pm 10.7 3.7 5.9 72 2.3 W 32 54 17 29 1011.9 1011.9 0.0
15/04:20pm 12.3 5.1 4.8 60 3.5 W 32 50 17 27 1011.5 1011.5 0.0
15/04:00pm 13.5 6.2 4.6 55 4.2 W 32 46 17 25 1011.1 1011.1 0.0
15/03:44pm 13.5 6.8 3.8 52 4.5 W 28 48 15 26 1011.0 1011.0 0.0
15/03:30pm 13.3 6.5 5.0 57 3.9 W 30 44 16 24 1010.8 1010.8 0.0
15/03:00pm 14.3 7.2 5.7 56 4.2 W 32 54 17 29 1010.8 1010.8 0.0
15/02:33pm 12.7 6.0 5.4 61 3.5 W 30 50 16 27 1010.7 1010.7 0.0
15/02:30pm 13.6 6.6 6.0 60 3.7 W 32 48 17 26 1010.7 1010.7 0.0
15/02:21pm 12.9 6.7 6.0 63 3.3 W 28 48 15 26 1010.7 1010.7 0.0
15/02:00pm 13.5 6.5 5.9 60 3.7 W 32 46 17 25 1010.6 1010.6 0.0
15/01:30pm 12.1 5.3 5.3 63 3.2 W 30 50 16 27 1010.4 1010.5 0.0
15/01:07pm 12.8 5.4 4.8 58 3.7 W 33 52 18 28 1010.1 1010.2 0.0
15/01:00pm 13.1 5.2 4.5 56 4.0 W 35 50 19 27 1010.2 1010.3 0.0
15/12:30pm 13.0 4.7 4.4 56 4.0 W 37 57 20 31 1010.2 1010.3 0.0
15/12:00pm 12.5 5.0 4.2 57 3.8 WSW 33 54 18 29 1010.6 1010.6 0.0
15/11:30am 12.9 5.7 5.1 59 3.7 WSW 32 52 17 28 1010.6 1010.6 0.0
15/11:00am 11.6 4.1 4.3 61 3.4 W 33 57 18 31 1010.4 1010.5 0.0
15/10:30am 11.5 4.0 4.5 62 3.2 W 33 56 18 30 1010.0 1010.1 0.0
15/10:00am 11.4 3.6 5.1 65 2.9 W 35 54 19 29 1009.9 1010.0 0.0
15/09:34am 10.4 2.6 5.0 69 2.5 W 35 54 19 29 1009.7 1009.8 0.0
15/09:30am 10.0 1.8 4.8 70 2.4 W 37 54 20 29 1009.7 1009.8 0.0
15/09:00am 10.4 3.6 5.2 70 2.4 W 30 50 16 27 1009.3 1009.3 5.8
15/08:30am 9.3 2.8 4.5 72 2.2 W 28 46 15 25 1008.8 1008.8 5.8
15/08:08am 8.7 2.2 4.9 77 1.7 WNW 28 46 15 25 1008.4 1008.4 5.8
15/08:00am 8.6 2.2 5.0 78 1.6 WNW 28 43 15 23 1008.1 1008.1 5.8
15/07:30am 7.7 2.0 5.0 83 1.2 WNW 24 39 13 21 1007.5 1007.5 5.8
15/07:00am 6.9 0.8 4.7 86 1.0 WNW 26 39 14 21 1006.9 1007.0 5.8
15/06:30am 6.9 0.8 4.7 86 1.0 WNW 26 39 14 21 1006.6 1006.6 5.8
15/06:00am 6.9 1.2 4.7 86 1.0 WNW 24 41 13 22 1006.2 1006.2 5.8
15/05:30am 7.1 1.1 5.1 87 0.9 WNW 26 37 14 20 1005.9 1005.9 5.8
15/05:00am 7.2 1.6 5.2 87 0.9 NW 24 35 13 19 1005.6 1005.6 5.8
15/04:30am 7.3 1.7 5.3 87 0.9 NW 24 41 13 22 1005.4 1005.4 5.8
15/04:00am 7.3 2.1 5.3 87 0.9 NW 22 33 12 18 1005.4 1005.4 5.8
15/03:30am 7.5 2.3 5.5 87 0.9 NW 22 37 12 20 1005.3 1005.3 5.8
15/03:00am 7.8 2.7 5.8 87 0.9 NW 22 33 12 18 1005.3 1005.3 5.8
15/02:30am 7.9 2.7 5.7 86 1.0 NW 22 37 12 20 1005.4 1005.4 5.8
15/02:00am 7.8 2.7 5.8 87 0.9 NW 22 39 12 21 1005.2 1005.2 5.8
15/01:30am 7.7 2.1 5.5 86 1.0 NW 24 39 13 21 1005.4 1005.4 5.8
15/01:00am 7.8 2.7 5.8 87 0.9 NW 22 33 12 18 1005.5 1005.5 5.8
15/12:30am 8.0 3.3 6.1 88 0.9 NW 20 33 11 18 1005.5 1005.5 5.8
15/12:00am 8.3 3.6 5.9 85 1.1 WNW 20 30 11 16 1005.8 1005.8 5.8
 
Date/Time
WST
Temp
°C
App
Temp
°C
Dew
Point
°C
Rel
Hum
%
Delta-T
°C
Wind Press
QNH
hPa
Press
MSL
hPa
Rain since
9am
mm
Dir  Spd
km/h
Gust
km/h
Spd
kts
Gust
kts
14/11:30pm 8.5 3.0 6.1 85 1.1 NW 24 41 13 22 1005.9 1005.9 5.8
14/11:00pm 8.4 2.9 5.9 84 1.2 NW 24 37 13 20 1006.1 1006.1 5.8
14/10:30pm 8.4 2.9 6.0 85 1.1 NW 24 39 13 21 1006.2 1006.2 5.8
14/10:00pm 8.5 3.4 5.8 83 1.3 NW 22 33 12 18 1006.2 1006.2 5.8
14/09:30pm 8.7 2.8 5.6 81 1.4 NW 26 37 14 20 1006.1 1006.1 5.8
14/09:00pm 8.9 3.3 5.6 80 1.5 NW 24 33 13 18 1006.2 1006.2 5.8
14/08:30pm 9.1 3.9 5.3 77 1.7 WNW 22 37 12 20 1006.2 1006.2 5.8
14/08:00pm 9.5 3.8 5.1 74 2.0 WNW 24 39 13 21 1006.3 1006.3 5.8
14/07:30pm 9.4 4.1 5.0 74 2.0 WNW 22 35 12 19 1006.1 1006.1 5.8
14/07:00pm 9.7 3.7 5.3 74 2.0 WNW 26 44 14 24 1005.9 1005.9 5.8
14/06:30pm 10.0 4.5 5.8 75 2.0 WNW 24 39 13 21 1005.6 1005.6 5.8
14/06:00pm 10.2 5.4 5.4 72 2.2 WNW 20 33 11 18 1005.2 1005.2 5.8
14/05:30pm 11.0 5.3 5.1 67 2.7 WNW 24 35 13 19 1004.7 1004.7 5.8
14/05:00pm 11.8 5.4 5.2 64 3.1 WNW 28 43 15 23 1004.1 1004.0 5.8
14/04:32pm 12.5 6.3 6.1 65 3.1 WNW 28 46 15 25 1003.8 1003.7 5.8
14/04:30pm 12.8 6.3 6.4 65 3.1 WNW 30 46 16 25 1003.8 1003.7 5.8
14/04:00pm 13.0 7.1 7.7 70 2.7 WNW 28 46 15 25 1003.5 1003.5 5.8
14/03:43pm 12.5 6.4 8.2 75 2.2 WNW 30 48 16 26 1003.2 1003.2 5.8
14/03:30pm 11.6 5.6 8.6 82 1.5 W 30 46 16 25 1003.2 1003.2 5.8
14/03:00pm 13.7 7.2 8.3 70 2.8 WNW 32 54 17 29 1002.7 1002.7 5.6
14/02:47pm 13.4 7.5 8.9 74 2.3 WNW 30 50 16 27 1002.6 1002.6 5.6
14/02:30pm 13.3 7.1 9.2 76 2.1 WNW 32 46 17 25 1002.5 1002.5 5.6
14/02:00pm 12.0 5.7 9.6 85 1.2 W 33 54 18 29 1002.5 1002.5 5.4
14/01:55pm 11.5 5.2 9.1 85 1.2 W 32 54 17 29 1002.9 1002.9 5.4
14/01:30pm 11.6 6.2 9.5 87 1.1 W 28 43 15 23 1002.8 1002.8 5.4
14/01:05pm 11.9 6.6 9.8 87 1.1 W 28 46 15 25 1002.7 1002.7 5.2
14/01:00pm 12.4 7.7 10.6 89 1.0 W 26 46 14 25 1002.7 1002.7 5.2
14/12:33pm 11.2 5.4 9.3 88 1.0 W 30 48 16 26 1002.9 1002.9 4.8
14/12:30pm 11.2 4.9 9.1 87 1.1 W 32 48 17 26 1003.0 1003.0 4.6
14/12:05pm 12.6 8.1 10.1 85 1.3 W 24 46 13 25 1002.5 1002.5 4.0
14/12:00pm 13.4 8.4 10.8 84 1.4 WNW 28 43 15 23 1002.2 1002.2 3.8
14/11:30am 12.4 7.3 10.6 89 0.9 WNW 28 57 15 31 1002.1 1002.1 3.8
14/11:00am 14.7 9.7 11.1 79 2.0 NW 28 46 15 25 1001.8 1001.8 0.2
14/10:30am 16.5 11.6 11.4 72 2.8 NW 28 48 15 26 1002.1 1002.1 0.2
14/10:00am 15.4 10.1 11.4 77 2.2 NW 30 54 16 29 1002.5 1002.5 0.2
14/09:30am 15.2 10.7 12.7 85 1.4 NW 28 54 15 29 1002.6 1002.6 0.2
14/09:11am 13.5 8.8 11.9 90 0.9 NW 28 46 15 25 1003.0 1003.0 0.2
14/09:00am 13.2 7.9 11.3 88 1.0 NW 30 46 16 25 1003.2 1003.2 1.0
14/08:47am 13.4 7.7 11.1 86 1.2 NW 32 57 17 31 1003.3 1003.3 1.0
14/08:30am 14.5 8.7 10.9 79 1.9 NW 32 46 17 25 1003.3 1003.3 0.8
14/08:06am 13.7 8.3 10.9 83 1.5 NW 30 50 16 27 1003.2 1003.2 0.8
14/08:00am 13.6 8.6 11.0 84 1.4 NW 28 41 15 22 1003.2 1003.2 0.8
14/07:30am 13.5 7.7 10.9 84 1.4 NNW 32 52 17 28 1003.3 1003.3 0.8
14/07:00am 12.9 7.4 10.6 86 1.2 NNW 30 50 16 27 1003.3 1003.3 0.8
14/06:58am 13.0 7.9 10.7 86 1.2 NNW 28 46 15 25 1003.3 1003.3 0.8
14/06:30am 12.6 7.0 10.3 86 1.2 NW 30 44 16 24 1003.4 1003.4 0.8
14/06:03am 12.5 7.3 10.2 86 1.2 NW 28 50 15 27 1003.3 1003.3 0.8
14/06:00am 12.5 7.0 10.4 87 1.1 NW 30 43 16 23 1003.2 1003.2 0.8
14/05:30am 12.2 7.0 10.1 87 1.1 NNW 28 43 15 23 1003.2 1003.2 0.8
14/05:00am 12.3 6.7 10.2 87 1.1 NNW 30 41 16 22 1003.2 1003.2 0.8
14/04:30am 12.4 7.2 10.3 87 1.1 NNW 28 41 15 22 1003.3 1003.3 0.8
14/04:00am 12.2 6.5 9.9 86 1.2 NNW 30 48 16 26 1003.7 1003.6 0.8
14/03:57am 12.3 6.7 10.0 86 1.2 NNW 30 48 16 26 1003.7 1003.6 0.8

Other Formats:

Comma delimited format used in spreadsheet applications
http://www.bom.gov.au/fwo/IDW60801/IDW60801.95636.axf

JavaScript Object Notation format (JSON) in row-major order
http://www.bom.gov.au/fwo/IDW60801/IDW60801.95636.json